createdAt,value
2022-12-29T00:01:22.853Z,96799.91
2022-12-29T00:03:25.493Z,96806.56
2022-12-29T00:05:28.106Z,96803.66
2022-12-29T00:07:30.644Z,96805.00
2022-12-29T00:09:33.420Z,96801.69
2022-12-29T00:11:36.186Z,96801.97
2022-12-29T00:13:56.644Z,96807.31
2022-12-29T00:16:00.734Z,96811.56
2022-12-29T00:18:03.513Z,96815.56
2022-12-29T00:20:20.706Z,96804.53
2022-12-29T00:22:40.989Z,96803.09
2022-12-29T00:25:01.523Z,96805.09
2022-12-29T00:27:31.205Z,96809.56
2022-12-29T00:29:51.440Z,96798.38
2022-12-29T00:32:12.889Z,96792.97
2022-12-29T00:34:33.348Z,96780.91
2022-12-29T00:36:40.106Z,96781.38
2022-12-29T00:39:04.216Z,96768.34
2022-12-29T00:41:24.567Z,96775.28
2022-12-29T00:43:44.584Z,96771.81
2022-12-29T00:45:47.257Z,96771.41
2022-12-29T00:47:51.230Z,96772.38
2022-12-29T00:49:52.833Z,96764.88
2022-12-29T00:51:56.356Z,96761.44
2022-12-29T00:53:58.960Z,96761.06
2022-12-29T00:56:01.707Z,96770.22
2022-12-29T00:58:04.301Z,96770.16
2022-12-29T01:00:08.118Z,96770.09
2022-12-29T01:02:11.926Z,96763.22
2022-12-29T01:04:16.211Z,96758.22
2022-12-29T01:06:21.004Z,96758.66
2022-12-29T01:08:23.628Z,96760.28
2022-12-29T01:10:25.223Z,96753.19
2022-12-29T01:14:58.114Z,96751.47
2022-12-29T01:17:00.688Z,96768.03
2022-12-29T01:19:03.298Z,96758.41
2022-12-29T01:21:07.671Z,96763.47
2022-12-29T01:23:10.209Z,96761.25
2022-12-29T01:25:12.807Z,96760.22
2022-12-29T01:27:15.363Z,96769.66
2022-12-29T01:29:18.733Z,96767.06
2022-12-29T01:31:22.760Z,96767.41
2022-12-29T01:33:25.426Z,96775.16
2022-12-29T01:35:28.437Z,96779.81
2022-12-29T01:37:31.021Z,96778.91
2022-12-29T01:39:33.604Z,96780.41
2022-12-29T01:41:36.224Z,96784.03
2022-12-29T01:43:44.085Z,96783.16
2022-12-29T01:45:52.458Z,96788.56
2022-12-29T01:48:01.200Z,96784.34
2022-12-29T01:50:08.643Z,96794.91
2022-12-29T01:52:11.189Z,96798.31
2022-12-29T01:54:22.986Z,96790.50
2022-12-29T01:56:25.679Z,96788.22
2022-12-29T01:58:33.001Z,96781.19
2022-12-29T02:00:35.725Z,96783.84
2022-12-29T02:02:38.899Z,96785.66
2022-12-29T02:04:45.917Z,96782.22
2022-12-29T02:06:53.879Z,96789.16
2022-12-29T02:08:58.590Z,96779.72
2022-12-29T02:11:02.747Z,96782.31
2022-12-29T02:13:05.515Z,96784.03
2022-12-29T02:15:09.568Z,96777.91
2022-12-29T02:17:22.451Z,96774.50
2022-12-29T02:19:55.120Z,96768.50
2022-12-29T02:22:06.366Z,96772.56
2022-12-29T02:24:35.998Z,96761.91
2022-12-29T02:26:55.087Z,96772.75
2022-12-29T02:29:30.148Z,96768.63
2022-12-29T02:31:44.094Z,96766.63
2022-12-29T02:33:58.799Z,96767.69
2022-12-29T02:36:09.594Z,96763.94
2022-12-29T02:38:22.574Z,96759.59
2022-12-29T02:40:30.149Z,96757.97
2022-12-29T02:42:38.273Z,96759.91
2022-12-29T02:44:53.509Z,96762.53
2022-12-29T02:47:02.440Z,96759.63
2022-12-29T02:49:12.473Z,96758.75
2022-12-29T02:51:22.803Z,96752.19
2022-12-29T02:53:40.978Z,96751.47
2022-12-29T02:55:49.996Z,96752.31
2022-12-29T02:58:15.466Z,96756.41
2022-12-29T03:00:19.218Z,96748.38
2022-12-29T03:02:37.719Z,96738.28
2022-12-29T03:04:50.825Z,96746.16
2022-12-29T03:07:03.784Z,96756.66
2022-12-29T03:09:19.029Z,96764.59
2022-12-29T03:11:49.625Z,96758.09
2022-12-29T03:14:14.917Z,96767.63
2022-12-29T03:16:25.598Z,96758.97
2022-12-29T03:18:38.591Z,96771.78
2022-12-29T03:20:47.394Z,96773.41
2022-12-29T03:22:53.957Z,96763.53
2022-12-29T03:24:59.858Z,96765.03
2022-12-29T03:27:07.336Z,96763.59
2022-12-29T03:29:11.334Z,96764.72
2022-12-29T03:31:16.220Z,96763.16
2022-12-29T03:33:24.826Z,96748.59
2022-12-29T03:35:31.809Z,96757.75
2022-12-29T03:37:40.978Z,96751.94
2022-12-29T03:39:43.855Z,96754.84
2022-12-29T03:41:47.721Z,96752.72
2022-12-29T03:43:50.273Z,96756.81
2022-12-29T03:45:52.914Z,96748.69
2022-12-29T03:47:55.755Z,96752.09
2022-12-29T03:49:58.335Z,96745.97
2022-12-29T03:52:02.257Z,96740.00
2022-12-29T03:54:05.028Z,96739.44
2022-12-29T03:56:08.041Z,96730.09
2022-12-29T03:58:10.569Z,96729.97
2022-12-29T04:00:14.215Z,96714.22
2022-12-29T04:02:16.997Z,96712.44
2022-12-29T04:04:21.100Z,96707.16
2022-12-29T04:06:24.540Z,96702.03
2022-12-29T04:08:28.504Z,96692.53
2022-12-29T04:10:31.064Z,96695.78
2022-12-29T04:12:33.659Z,96702.81
2022-12-29T04:14:36.842Z,96706.84
2022-12-29T04:16:40.018Z,96712.44
2022-12-29T04:18:42.685Z,96712.59
2022-12-29T04:21:04.513Z,96717.09
2022-12-29T04:23:08.125Z,96713.75
2022-12-29T04:25:12.411Z,96717.41
2022-12-29T04:27:14.965Z,96720.22
2022-12-29T04:29:17.966Z,96713.44
2022-12-29T04:31:20.613Z,96714.47
2022-12-29T04:33:23.609Z,96725.94
2022-12-29T04:35:26.189Z,96727.06
2022-12-29T04:37:28.749Z,96741.81
2022-12-29T04:39:31.319Z,96739.34
2022-12-29T04:41:35.305Z,96743.19
2022-12-29T04:43:37.939Z,96740.38
2022-12-29T04:45:40.780Z,96741.94
2022-12-29T04:47:43.371Z,96733.94
2022-12-29T04:49:46.013Z,96723.66
2022-12-29T04:51:48.631Z,96714.16
2022-12-29T04:53:51.209Z,96709.03
2022-12-29T04:55:54.640Z,96714.41
2022-12-29T04:57:58.646Z,96704.56
2022-12-29T05:00:01.255Z,96713.38
2022-12-29T05:02:03.853Z,96711.81
2022-12-29T05:04:06.610Z,96714.56
2022-12-29T05:06:09.365Z,96716.38
2022-12-29T05:08:12.015Z,96713.53
2022-12-29T05:10:14.620Z,96714.25
2022-12-29T05:12:17.268Z,96715.91
2022-12-29T05:14:21.911Z,96721.97
2022-12-29T05:16:24.539Z,96720.16
2022-12-29T05:18:27.247Z,96732.25
2022-12-29T05:20:29.789Z,96732.59
2022-12-29T05:22:32.383Z,96732.13
2022-12-29T05:24:35.644Z,96730.81
2022-12-29T05:26:38.236Z,96735.25
2022-12-29T05:28:40.810Z,96724.50
2022-12-29T05:30:44.724Z,96723.00
2022-12-29T05:32:47.335Z,96726.97
2022-12-29T05:34:50.622Z,96731.13
2022-12-29T05:36:53.452Z,96730.53
2022-12-29T05:38:58.907Z,96737.16
2022-12-29T05:41:01.738Z,96736.53
2022-12-29T05:43:04.524Z,96738.28
2022-12-29T05:45:09.048Z,96738.16
2022-12-29T05:47:13.033Z,96734.41
2022-12-29T05:49:15.602Z,96737.16
2022-12-29T05:51:18.193Z,96736.91
2022-12-29T05:53:21.185Z,96722.84
2022-12-29T05:55:23.795Z,96722.41
2022-12-29T05:57:26.400Z,96711.50
2022-12-29T05:59:29.001Z,96707.91
2022-12-29T06:01:31.622Z,96716.78
2022-12-29T06:03:35.769Z,96702.97
2022-12-29T06:05:38.635Z,96702.81
2022-12-29T06:07:41.188Z,96700.31
2022-12-29T06:09:43.837Z,96698.69
2022-12-29T06:11:46.422Z,96690.22
2022-12-29T06:13:48.986Z,96693.13
2022-12-29T06:15:51.727Z,96698.47
2022-12-29T06:17:54.329Z,96688.91
2022-12-29T06:19:58.253Z,96694.75
2022-12-29T06:22:00.849Z,96687.03
2022-12-29T06:24:03.419Z,96686.38
2022-12-29T06:26:06.232Z,96679.88
2022-12-29T06:28:08.854Z,96674.38
2022-12-29T06:30:12.863Z,96674.06
2022-12-29T06:32:15.529Z,96681.56
2022-12-29T06:34:18.094Z,96683.31
2022-12-29T06:36:21.968Z,96674.44
2022-12-29T06:38:24.518Z,96668.63
2022-12-29T06:40:27.164Z,96662.53
2022-12-29T06:42:29.755Z,96663.63
2022-12-29T06:44:32.355Z,96667.09
2022-12-29T06:46:34.937Z,96668.19
2022-12-29T06:48:37.622Z,96675.63
2022-12-29T06:50:40.322Z,96689.06
2022-12-29T06:52:44.405Z,96687.75
2022-12-29T06:54:47.040Z,96681.34
2022-12-29T06:56:49.593Z,96686.75
2022-12-29T06:58:52.139Z,96686.91
2022-12-29T07:00:54.797Z,96689.94
2022-12-29T07:02:59.019Z,96685.34
2022-12-29T07:05:01.697Z,96681.06
2022-12-29T07:07:04.323Z,96688.25
2022-12-29T07:09:08.281Z,96692.97
2022-12-29T07:11:10.966Z,96682.16
2022-12-29T07:13:13.540Z,96688.47
2022-12-29T07:15:16.258Z,96684.91
2022-12-29T07:17:19.046Z,96686.16
2022-12-29T07:19:22.000Z,96686.94
2022-12-29T07:21:24.769Z,96687.75
2022-12-29T07:23:27.322Z,96691.16
2022-12-29T07:25:31.507Z,96678.84
2022-12-29T07:27:34.089Z,96687.78
2022-12-29T07:29:39.152Z,96686.53
2022-12-29T07:31:41.756Z,96681.94
2022-12-29T07:33:44.791Z,96685.19
2022-12-29T07:35:47.342Z,96685.06
2022-12-29T07:37:49.906Z,96682.09
2022-12-29T07:39:52.521Z,96681.03
2022-12-29T07:42:02.688Z,96683.16
2022-12-29T07:44:07.301Z,96685.47
2022-12-29T07:46:17.469Z,96680.88
2022-12-29T07:48:34.565Z,96689.38
2022-12-29T07:50:37.847Z,96691.59
2022-12-29T07:52:40.399Z,96688.56
2022-12-29T07:54:42.940Z,96702.59
2022-12-29T07:56:45.646Z,96696.69
2022-12-29T07:58:49.565Z,96693.94
2022-12-29T08:00:55.392Z,96694.69
2022-12-29T08:02:58.030Z,96695.09
2022-12-29T08:05:00.614Z,96705.59
2022-12-29T08:07:03.213Z,96692.88
2022-12-29T08:09:13.598Z,96684.66
2022-12-29T08:11:19.187Z,96692.94
2022-12-29T08:13:21.763Z,96684.22
2022-12-29T08:15:30.491Z,96692.69
2022-12-29T08:17:35.078Z,96703.38
2022-12-29T08:19:37.733Z,96698.16
2022-12-29T08:21:40.470Z,96700.47
2022-12-29T08:23:43.037Z,96707.69
2022-12-29T08:25:45.628Z,96704.41
2022-12-29T08:27:48.395Z,96711.28
2022-12-29T08:29:51.142Z,96715.81
2022-12-29T08:31:55.057Z,96709.38
2022-12-29T08:33:57.610Z,96716.75
2022-12-29T08:36:03.453Z,96713.97
2022-12-29T08:38:06.119Z,96723.34
2022-12-29T08:40:09.999Z,96711.59
2022-12-29T08:42:12.752Z,96722.72
2022-12-29T08:44:15.537Z,96723.78
2022-12-29T08:46:18.740Z,96720.88
2022-12-29T08:48:23.195Z,96728.03
2022-12-29T08:50:25.779Z,96714.13
2022-12-29T08:52:28.538Z,96722.22
2022-12-29T08:54:31.140Z,96723.50
2022-12-29T08:56:33.946Z,96724.84
2022-12-29T08:58:36.748Z,96730.75
2022-12-29T09:00:39.306Z,96731.25
2022-12-29T09:02:41.945Z,96729.50
2022-12-29T09:04:46.215Z,96741.28
2022-12-29T09:06:48.893Z,96731.38
2022-12-29T09:08:51.471Z,96739.53
2022-12-29T09:10:54.069Z,96735.78
2022-12-29T09:12:56.657Z,96739.78
2022-12-29T09:14:59.360Z,96738.75
2022-12-29T09:17:19.563Z,96756.66
2022-12-29T09:19:22.153Z,96751.72
2022-12-29T09:21:26.162Z,96761.41
2022-12-29T09:23:29.561Z,96753.78
2022-12-29T09:25:32.168Z,96751.72
2022-12-29T09:27:34.713Z,96760.84
2022-12-29T09:29:37.305Z,96751.44
2022-12-29T09:31:39.932Z,96762.78
2022-12-29T09:33:42.728Z,96767.78
2022-12-29T09:35:46.019Z,96769.13
2022-12-29T09:37:51.128Z,96772.34
2022-12-29T09:39:54.709Z,96774.09
2022-12-29T09:42:07.360Z,96759.19
2022-12-29T09:44:19.277Z,96773.19
2022-12-29T09:46:27.413Z,96771.09
2022-12-29T09:48:34.702Z,96768.69
2022-12-29T09:50:39.793Z,96766.00
2022-12-29T09:52:50.126Z,96763.34
2022-12-29T09:55:02.862Z,96766.63
2022-12-29T09:57:17.743Z,96754.34
2022-12-29T09:59:24.996Z,96756.41
2022-12-29T10:01:34.398Z,96749.03
2022-12-29T10:03:47.775Z,96743.06
2022-12-29T10:05:58.346Z,96754.03
2022-12-29T10:08:17.891Z,96751.34
2022-12-29T10:10:36.365Z,96751.88
2022-12-29T10:12:53.182Z,96753.78
2022-12-29T10:15:04.829Z,96757.44
2022-12-29T10:17:18.289Z,96751.13
2022-12-29T10:19:35.148Z,96758.25
2022-12-29T10:21:54.163Z,96752.66
2022-12-29T10:23:58.166Z,96746.75
2022-12-29T10:26:04.701Z,96739.47
2022-12-29T10:28:15.671Z,96743.19
2022-12-29T10:30:19.371Z,96749.25
2022-12-29T10:32:29.295Z,96751.91
2022-12-29T10:34:35.820Z,96759.56
2022-12-29T10:36:41.910Z,96754.03
2022-12-29T10:38:52.324Z,96753.88
2022-12-29T10:41:02.458Z,96757.63
2022-12-29T10:43:21.529Z,96759.44
2022-12-29T10:45:27.508Z,96762.78
2022-12-29T10:47:34.152Z,96762.66
2022-12-29T10:49:42.087Z,96777.22
2022-12-29T10:51:48.111Z,96771.19
2022-12-29T10:53:54.986Z,96755.97
2022-12-29T10:55:58.353Z,96756.56
2022-12-29T10:58:05.904Z,96752.66
2022-12-29T11:00:16.041Z,96760.63
2022-12-29T11:02:44.727Z,96754.25
2022-12-29T11:04:55.309Z,96754.81
2022-12-29T11:06:58.752Z,96766.78
2022-12-29T11:09:11.812Z,96763.56
2022-12-29T11:11:25.076Z,96763.56
2022-12-29T11:13:34.871Z,96764.56
2022-12-29T11:15:43.860Z,96760.41
2022-12-29T11:17:48.432Z,96762.41
2022-12-29T11:19:50.950Z,96787.75
2022-12-29T11:21:54.048Z,96763.63
2022-12-29T11:24:01.718Z,96780.34
2022-12-29T11:26:19.668Z,96784.94
2022-12-29T11:28:22.260Z,96790.22
2022-12-29T11:30:27.858Z,96797.59
2022-12-29T11:32:31.819Z,96792.75
2022-12-29T11:34:36.388Z,96779.66
2022-12-29T11:36:40.842Z,96785.00
2022-12-29T11:38:47.978Z,96791.00
2022-12-29T11:40:51.567Z,96794.75
2022-12-29T11:42:57.091Z,96792.16
2022-12-29T11:45:10.837Z,96776.88
2022-12-29T11:47:23.914Z,96766.59
2022-12-29T11:49:28.657Z,96763.03
2022-12-29T11:51:36.457Z,96765.88
2022-12-29T11:53:44.355Z,96782.31
2022-12-29T11:55:55.195Z,96769.56
2022-12-29T11:58:03.178Z,96767.41
2022-12-29T12:00:17.576Z,96761.97
2022-12-29T12:02:37.208Z,96766.78
2022-12-29T12:04:44.557Z,96761.75
2022-12-29T12:06:51.265Z,96762.09
2022-12-29T12:08:57.738Z,96765.91
2022-12-29T12:11:08.422Z,96775.50
2022-12-29T12:13:20.936Z,96766.88
2022-12-29T12:15:27.808Z,96763.81
2022-12-29T12:17:38.263Z,96772.09
2022-12-29T12:19:48.403Z,96759.03
2022-12-29T12:21:57.919Z,96767.41
2022-12-29T12:24:19.157Z,96769.25
2022-12-29T12:26:29.589Z,96773.06
2022-12-29T12:28:39.531Z,96791.41
2022-12-29T12:30:46.773Z,96789.25
2022-12-29T12:32:57.568Z,96770.28
2022-12-29T12:35:01.518Z,96782.19
2022-12-29T12:37:28.658Z,96774.34
2022-12-29T12:39:42.509Z,96771.56
2022-12-29T12:41:55.873Z,96763.22
2022-12-29T12:44:04.033Z,96764.13
2022-12-29T12:46:20.673Z,96767.13
2022-12-29T12:48:54.766Z,96771.34
2022-12-29T12:51:09.372Z,96763.88
2022-12-29T12:53:27.979Z,96761.50
2022-12-29T12:55:52.528Z,96756.91
2022-12-29T12:58:04.809Z,96753.38
2022-12-29T13:00:12.754Z,96758.53
2022-12-29T13:02:32.258Z,96756.38
2022-12-29T13:04:52.155Z,96760.66
2022-12-29T13:07:09.732Z,96750.38
2022-12-29T13:09:26.012Z,96755.59
2022-12-29T13:11:40.490Z,96743.38
2022-12-29T13:14:07.856Z,96740.94
2022-12-29T13:16:18.914Z,96732.78
2022-12-29T13:18:28.418Z,96737.41
2022-12-29T13:20:37.927Z,96725.81
2022-12-29T13:22:50.142Z,96728.59
2022-12-29T13:25:01.929Z,96727.34
2022-12-29T13:27:11.196Z,96727.66
2022-12-29T13:29:19.436Z,96726.25
2022-12-29T13:31:32.037Z,96727.03
2022-12-29T13:33:43.881Z,96722.19
2022-12-29T13:35:53.796Z,96722.19
2022-12-29T13:38:03.034Z,96730.88
2022-12-29T13:40:15.055Z,96724.06
2022-12-29T13:42:20.701Z,96727.72
2022-12-29T13:44:31.863Z,96731.19
2022-12-29T13:46:42.197Z,96726.88
2022-12-29T13:48:50.913Z,96723.28
2022-12-29T13:50:59.146Z,96720.66
2022-12-29T13:53:10.622Z,96717.38
2022-12-29T13:55:26.965Z,96713.53
2022-12-29T13:57:41.615Z,96717.13
2022-12-29T13:59:52.475Z,96721.88
2022-12-29T14:02:01.051Z,96714.66
2022-12-29T14:04:11.456Z,96718.44
2022-12-29T14:06:21.384Z,96717.50
2022-12-29T14:08:25.397Z,96716.03
2022-12-29T14:10:31.018Z,96719.94
2022-12-29T14:12:38.323Z,96708.81
2022-12-29T14:14:41.150Z,96719.41
2022-12-29T14:16:44.679Z,96723.50
2022-12-29T14:18:47.468Z,96717.50
2022-12-29T14:20:56.561Z,96711.59
2022-12-29T14:23:01.461Z,96707.47
2022-12-29T14:25:05.956Z,96710.25
2022-12-29T14:27:46.749Z,96710.00
2022-12-29T14:29:50.860Z,96701.69
2022-12-29T14:31:54.338Z,96709.41
2022-12-29T14:34:25.540Z,96707.88
2022-12-29T14:36:36.395Z,96717.78
2022-12-29T14:38:46.887Z,96713.88
2022-12-29T14:40:51.588Z,96710.03
2022-12-29T14:42:57.067Z,96714.97
2022-12-29T14:45:04.628Z,96714.50
2022-12-29T14:47:09.645Z,96720.25
2022-12-29T14:49:17.962Z,96723.53
2022-12-29T14:51:29.523Z,96725.53
2022-12-29T14:53:46.901Z,96723.78
2022-12-29T14:55:57.182Z,96723.63
2022-12-29T14:58:04.866Z,96728.84
2022-12-29T15:00:18.435Z,96723.78
2022-12-29T15:02:24.104Z,96728.56
2022-12-29T15:04:32.366Z,96725.47
2022-12-29T15:06:40.545Z,96724.31
2022-12-29T15:08:49.963Z,96716.59
2022-12-29T15:11:01.459Z,96711.69
2022-12-29T15:13:06.630Z,96717.91
2022-12-29T15:15:22.157Z,96716.13
2022-12-29T15:17:27.480Z,96729.81
2022-12-29T15:19:30.578Z,96728.03
2022-12-29T15:21:35.595Z,96722.66
2022-12-29T15:23:39.166Z,96717.28
2022-12-29T15:25:49.678Z,96728.34
2022-12-29T15:27:55.725Z,96738.09
2022-12-29T15:30:00.240Z,96741.47
2022-12-29T15:32:17.833Z,96741.03
2022-12-29T15:34:23.379Z,96741.56
2022-12-29T15:36:28.488Z,96737.31
2022-12-29T15:38:40.035Z,96723.72
2022-12-29T15:40:46.226Z,96727.81
2022-12-29T15:43:03.511Z,96723.66
2022-12-29T15:45:11.158Z,96727.19
2022-12-29T15:47:19.338Z,96729.19
2022-12-29T15:49:30.394Z,96726.03
2022-12-29T15:51:39.272Z,96723.97
2022-12-29T15:53:41.914Z,96727.66
2022-12-29T15:55:48.504Z,96728.19
2022-12-29T15:57:51.176Z,96718.78
2022-12-29T15:59:55.783Z,96729.22
2022-12-29T16:02:00.158Z,96729.56
2022-12-29T16:04:06.752Z,96734.22
2022-12-29T16:06:11.348Z,96736.41
2022-12-29T16:08:26.771Z,96731.63
2022-12-29T16:10:34.627Z,96733.84
2022-12-29T16:12:39.255Z,96736.53
2022-12-29T16:14:45.439Z,96744.59
2022-12-29T16:16:51.388Z,96746.44
2022-12-29T16:18:58.045Z,96751.91
2022-12-29T16:21:00.963Z,96745.06
2022-12-29T16:23:03.591Z,96753.81
2022-12-29T16:25:17.678Z,96750.19
2022-12-29T16:27:24.939Z,96742.69
2022-12-29T16:29:30.865Z,96748.19
2022-12-29T16:31:37.272Z,96747.97
2022-12-29T16:33:47.723Z,96750.94
2022-12-29T16:35:50.337Z,96743.03
2022-12-29T16:38:15.408Z,96751.88
2022-12-29T16:40:26.957Z,96747.56
2022-12-29T16:42:37.429Z,96753.38
2022-12-29T16:44:40.321Z,96763.22
2022-12-29T16:46:58.866Z,96767.16
2022-12-29T16:49:02.894Z,96772.16
2022-12-29T16:51:08.074Z,96776.75
2022-12-29T16:53:22.098Z,96781.13
2022-12-29T16:55:25.058Z,96783.94
2022-12-29T16:57:31.413Z,96788.63
2022-12-29T16:59:36.293Z,96789.44
2022-12-29T17:01:40.498Z,96786.03
2022-12-29T17:03:47.605Z,96777.50
2022-12-29T17:05:57.379Z,96784.34
2022-12-29T17:08:02.052Z,96786.66
2022-12-29T17:10:05.268Z,96788.59
2022-12-29T17:12:11.632Z,96790.25
2022-12-29T17:14:24.921Z,96790.34
2022-12-29T17:16:27.585Z,96795.00
2022-12-29T17:18:30.331Z,96796.09
2022-12-29T17:20:33.442Z,96791.19
2022-12-29T17:22:37.341Z,96798.53
2022-12-29T17:24:40.089Z,96800.50
2022-12-29T17:26:42.980Z,96800.34
2022-12-29T17:28:48.211Z,96804.00
2022-12-29T17:30:51.725Z,96803.78
2022-12-29T17:32:59.225Z,96797.16
2022-12-29T17:35:01.974Z,96800.50
2022-12-29T17:37:04.800Z,96806.72
2022-12-29T17:39:09.699Z,96805.56
2022-12-29T17:41:15.085Z,96806.56
2022-12-29T17:43:18.318Z,96808.75
2022-12-29T17:45:23.947Z,96807.06
2022-12-29T17:47:26.501Z,96816.59
2022-12-29T17:49:29.385Z,96806.94
2022-12-29T17:51:31.998Z,96813.22
2022-12-29T17:53:34.558Z,96815.94
2022-12-29T17:55:38.922Z,96808.19
2022-12-29T17:57:41.569Z,96806.59
2022-12-29T17:59:44.397Z,96801.50
2022-12-29T18:01:49.955Z,96809.47
2022-12-29T18:03:52.754Z,96806.00
2022-12-29T18:05:55.761Z,96815.53
2022-12-29T18:07:59.931Z,96804.25
2022-12-29T18:10:02.488Z,96805.97
2022-12-29T18:12:08.175Z,96805.03
2022-12-29T18:14:14.270Z,96812.94
2022-12-29T18:16:17.028Z,96804.31
2022-12-29T18:18:21.277Z,96800.88
2022-12-29T18:20:24.065Z,96808.69
2022-12-29T18:22:28.963Z,96814.06
2022-12-29T18:24:31.586Z,96808.06
2022-12-29T18:26:35.715Z,96800.38
2022-12-29T18:28:40.315Z,96806.44
2022-12-29T18:30:42.947Z,96802.22
2022-12-29T18:32:45.648Z,96800.59
2022-12-29T18:34:48.947Z,96803.13
2022-12-29T18:36:53.095Z,96798.03
2022-12-29T18:38:57.320Z,96798.03
2022-12-29T18:40:59.903Z,96811.94
2022-12-29T18:43:03.061Z,96809.53
2022-12-29T18:45:19.206Z,96812.22
2022-12-29T18:47:21.850Z,96814.03
2022-12-29T18:49:25.495Z,96814.75
2022-12-29T18:51:28.145Z,96806.06
2022-12-29T18:53:30.828Z,96812.22
2022-12-29T18:55:33.654Z,96816.59
2022-12-29T18:57:36.251Z,96803.47
2022-12-29T18:59:39.043Z,96818.06
2022-12-29T19:01:43.414Z,96809.75
2022-12-29T19:03:46.112Z,96815.94
2022-12-29T19:05:48.915Z,96812.44
2022-12-29T19:07:52.580Z,96819.25
2022-12-29T19:09:56.023Z,96817.44
2022-12-29T19:11:58.618Z,96820.19
2022-12-29T19:14:01.337Z,96822.56
2022-12-29T19:16:03.980Z,96821.38
2022-12-29T19:18:43.093Z,96823.59
2022-12-29T19:20:36.145Z,96825.19
2022-12-29T19:22:38.789Z,96818.63
2022-12-29T19:24:41.442Z,96817.34
2022-12-29T19:26:44.020Z,96812.38
2022-12-29T19:28:46.579Z,96813.34
2022-12-29T19:30:52.649Z,96810.53
2022-12-29T19:32:57.641Z,96819.69
2022-12-29T19:35:01.558Z,96815.59
2022-12-29T19:37:04.652Z,96818.75
2022-12-29T19:39:07.322Z,96818.28
2022-12-29T19:41:09.952Z,96820.97
2022-12-29T19:43:12.957Z,96816.47
2022-12-29T19:45:16.510Z,96819.13
2022-12-29T19:47:20.966Z,96819.19
2022-12-29T19:49:23.683Z,96823.66
2022-12-29T19:51:28.078Z,96827.09
2022-12-29T19:53:30.789Z,96827.16
2022-12-29T19:55:33.939Z,96829.78
2022-12-29T19:57:36.576Z,96830.56
2022-12-29T19:59:39.162Z,96830.78
2022-12-29T20:01:41.947Z,96834.28
2022-12-29T20:03:44.624Z,96838.00
2022-12-29T20:05:49.848Z,96845.91
2022-12-29T20:07:53.750Z,96847.81
2022-12-29T20:09:56.352Z,96850.56
2022-12-29T20:11:58.944Z,96858.47
2022-12-29T20:14:01.592Z,96854.22
2022-12-29T20:16:07.564Z,96861.53
2022-12-29T20:18:13.609Z,96863.34
2022-12-29T20:20:17.061Z,96868.56
2022-12-29T20:22:19.757Z,96880.13
2022-12-29T20:24:23.812Z,96888.06
2022-12-29T20:26:30.338Z,96903.53
2022-12-29T20:28:33.244Z,96896.97
2022-12-29T20:30:35.896Z,96893.31
2022-12-29T20:32:38.729Z,96904.94
2022-12-29T20:34:41.788Z,96899.13
2022-12-29T20:36:46.578Z,96909.88
2022-12-29T20:38:50.346Z,96920.75
2022-12-29T20:40:54.369Z,96902.78
2022-12-29T20:42:57.026Z,96913.06
2022-12-29T20:45:00.353Z,96910.25
2022-12-29T20:47:05.866Z,96918.06
2022-12-29T20:49:08.745Z,96915.44
2022-12-29T20:51:11.860Z,96926.13
2022-12-29T20:53:14.441Z,96938.34
2022-12-29T20:55:17.151Z,96929.69
2022-12-29T20:57:21.102Z,96947.31
2022-12-29T20:59:28.375Z,96950.38
2022-12-29T21:01:31.527Z,96954.34
2022-12-29T21:03:35.024Z,96959.41
2022-12-29T21:05:38.857Z,96965.91
2022-12-29T21:07:41.748Z,96959.25
2022-12-29T21:09:44.333Z,96969.56
2022-12-29T21:11:47.668Z,96964.56
2022-12-29T21:13:51.651Z,96968.69
2022-12-29T21:15:57.711Z,96976.06
2022-12-29T21:18:00.310Z,96981.31
2022-12-29T21:20:03.184Z,96993.47
2022-12-29T21:22:05.773Z,96992.53
2022-12-29T21:24:08.573Z,96996.81
2022-12-29T21:26:12.562Z,97004.94
2022-12-29T21:28:15.132Z,97008.56
2022-12-29T21:30:19.233Z,97009.53
2022-12-29T21:32:21.825Z,97009.53
2022-12-29T21:34:24.413Z,97010.41
2022-12-29T21:36:28.396Z,97018.53
2022-12-29T21:38:31.893Z,97012.66
2022-12-29T21:40:38.313Z,97014.75
2022-12-29T21:42:40.891Z,97008.22
2022-12-29T21:45:01.017Z,97021.16
2022-12-29T21:47:04.964Z,97028.56
2022-12-29T21:49:08.707Z,97027.41
2022-12-29T21:51:32.254Z,97038.47
2022-12-29T21:53:40.153Z,97041.47
2022-12-29T21:55:42.709Z,97024.63
2022-12-29T21:58:02.666Z,97029.75
2022-12-29T22:00:23.403Z,97032.88
2022-12-29T22:02:46.354Z,97039.66
2022-12-29T22:05:07.185Z,97042.81
2022-12-29T22:07:29.442Z,97042.38
2022-12-29T22:09:49.704Z,97042.41
2022-12-29T22:12:09.621Z,97053.56
2022-12-29T22:14:12.170Z,97042.53
2022-12-29T22:16:15.655Z,97049.81
2022-12-29T22:18:19.860Z,97049.66
2022-12-29T22:20:24.213Z,97043.44
2022-12-29T22:22:26.788Z,97041.03
2022-12-29T22:24:29.410Z,97040.22
2022-12-29T22:26:32.041Z,97033.31
2022-12-29T22:28:37.922Z,97024.56
2022-12-29T22:30:40.774Z,97029.16
2022-12-29T22:32:43.884Z,97029.22
2022-12-29T22:34:49.694Z,97031.00
2022-12-29T22:36:52.270Z,97029.00
2022-12-29T22:38:55.006Z,97029.91
2022-12-29T22:41:00.309Z,97031.44
2022-12-29T22:43:07.989Z,97028.97
2022-12-29T22:45:13.761Z,97031.94
2022-12-29T22:47:16.349Z,97035.38
2022-12-29T22:49:19.674Z,97029.28
2022-12-29T22:51:23.593Z,97029.97
2022-12-29T22:53:26.162Z,97026.00
2022-12-29T22:55:28.729Z,97026.88
2022-12-29T22:57:31.826Z,97030.13
2022-12-29T22:59:34.749Z,97028.69
2022-12-29T23:01:37.507Z,97019.50
2022-12-29T23:03:40.322Z,97030.00
2022-12-29T23:05:42.958Z,97028.69
2022-12-29T23:07:46.871Z,97024.31
2022-12-29T23:09:49.499Z,97028.00
2022-12-29T23:11:53.300Z,97028.09
2022-12-29T23:13:56.067Z,97036.00
2022-12-29T23:15:58.987Z,97048.66
2022-12-29T23:18:02.072Z,97049.63
2022-12-29T23:20:06.039Z,97050.72
2022-12-29T23:22:08.664Z,97059.34
2022-12-29T23:24:14.709Z,97047.91
2022-12-29T23:26:18.309Z,97047.75
2022-12-29T23:28:20.901Z,97062.75
2022-12-29T23:30:23.512Z,97059.63
2022-12-29T23:32:26.084Z,97062.41
2022-12-29T23:34:28.761Z,97065.22
2022-12-29T23:36:31.960Z,97069.56
2022-12-29T23:38:34.595Z,97065.56
2022-12-29T23:40:38.502Z,97066.16
2022-12-29T23:42:41.077Z,97069.81
2022-12-29T23:44:43.801Z,97064.72
2022-12-29T23:46:46.464Z,97065.97
2022-12-29T23:48:49.527Z,97064.56
2022-12-29T23:50:52.109Z,97071.72
2022-12-29T23:52:54.779Z,97074.25
2022-12-29T23:54:57.357Z,97082.88
2022-12-29T23:57:01.289Z,97077.72
2022-12-29T23:59:04.925Z,97088.13
